createdAt,value
2022-11-26T00:01:14.977Z,13.90
2022-11-26T00:03:41.795Z,18.10
2022-11-26T00:06:29.047Z,12.27
2022-11-26T00:08:55.123Z,14.57
2022-11-26T00:11:21.215Z,22.53
2022-11-26T00:13:47.262Z,20.23
2022-11-26T00:16:14.485Z,15.27
2022-11-26T00:18:41.511Z,18.43
2022-11-26T00:21:23.496Z,16.70
2022-11-26T00:23:50.032Z,17.40
2022-11-26T00:26:18.743Z,14.23
2022-11-26T00:28:55.885Z,15.13
2022-11-26T00:31:22.735Z,16.73
2022-11-26T00:33:49.091Z,15.87
2022-11-26T00:36:17.784Z,17.30
2022-11-26T00:38:45.452Z,17.17
2022-11-26T00:41:17.405Z,19.33
2022-11-26T00:43:44.595Z,17.93
2022-11-26T00:46:18.350Z,16.40
2022-11-26T00:48:44.525Z,19.80
2022-11-26T00:51:21.977Z,22.63
2022-11-26T00:53:48.397Z,19.53
2022-11-26T00:56:17.537Z,17.70
2022-11-26T00:58:44.602Z,19.80
2022-11-26T01:01:13.074Z,21.57
2022-11-26T01:03:42.155Z,21.00
2022-11-26T01:06:15.022Z,15.50
2022-11-26T01:08:41.201Z,19.33
2022-11-26T01:11:09.125Z,18.17
2022-11-26T01:13:35.178Z,16.80
2022-11-26T01:16:03.672Z,19.83
2022-11-26T01:18:34.051Z,16.07
2022-11-26T01:21:00.153Z,14.30
2022-11-26T01:23:26.244Z,15.37
2022-11-26T01:25:52.315Z,19.93
2022-11-26T01:28:19.057Z,13.43
2022-11-26T01:30:45.669Z,12.93
2022-11-26T01:33:11.707Z,17.57
2022-11-26T01:35:37.844Z,14.43
2022-11-26T01:38:04.688Z,17.50
2022-11-26T01:40:37.584Z,10.90
2022-11-26T01:43:06.108Z,12.00
2022-11-26T01:45:32.369Z,13.50
2022-11-26T01:47:58.489Z,17.50
2022-11-26T01:50:27.308Z,12.53
2022-11-26T01:53:06.424Z,11.70
2022-11-26T01:55:41.481Z,12.90
2022-11-26T01:58:12.737Z,10.07
2022-11-26T02:00:39.286Z,13.20
2022-11-26T02:03:05.853Z,11.93
2022-11-26T02:05:36.492Z,15.10
2022-11-26T02:08:02.583Z,15.37
2022-11-26T02:10:28.604Z,11.03
2022-11-26T02:12:54.707Z,19.77
2022-11-26T02:15:22.684Z,12.67
2022-11-26T02:17:55.536Z,10.97
2022-11-26T02:20:30.673Z,15.03
2022-11-26T02:23:07.880Z,16.43
2022-11-26T02:25:52.729Z,13.40
2022-11-26T02:28:24.909Z,14.43
2022-11-26T02:31:13.360Z,15.13
2022-11-26T02:33:55.366Z,11.87
2022-11-26T02:36:27.331Z,7.73
2022-11-26T02:38:53.383Z,8.37
2022-11-26T02:41:19.438Z,14.80
2022-11-26T02:43:45.789Z,8.40
2022-11-26T02:46:15.845Z,14.50
2022-11-26T02:48:45.261Z,12.90
2022-11-26T02:51:14.788Z,6.07
2022-11-26T02:53:41.527Z,8.40
2022-11-26T02:56:16.834Z,7.67
2022-11-26T02:58:43.569Z,5.37
2022-11-26T03:01:13.213Z,12.50
2022-11-26T03:03:46.391Z,13.53
2022-11-26T03:06:13.909Z,13.67
2022-11-26T03:08:40.310Z,19.13
2022-11-26T03:11:06.410Z,11.77
2022-11-26T03:13:32.454Z,8.20
2022-11-26T03:15:58.568Z,10.73
2022-11-26T03:18:24.665Z,8.07
2022-11-26T03:20:52.554Z,8.37
2022-11-26T03:23:19.040Z,9.80
2022-11-26T03:25:45.122Z,16.50
2022-11-26T03:28:11.296Z,14.13
2022-11-26T03:30:37.336Z,6.30
2022-11-26T03:33:03.413Z,5.17
2022-11-26T03:35:29.460Z,11.47
2022-11-26T03:37:55.509Z,6.13
2022-11-26T03:40:21.666Z,11.40
2022-11-26T03:42:47.689Z,12.27
2022-11-26T03:45:13.754Z,7.97
2022-11-26T03:47:39.798Z,10.77
2022-11-26T03:50:06.702Z,14.70
2022-11-26T03:52:33.103Z,12.53
2022-11-26T03:54:59.165Z,8.60
2022-11-26T03:57:25.282Z,10.07
2022-11-26T03:59:51.320Z,9.27
2022-11-26T04:02:17.340Z,7.20
2022-11-26T04:04:43.395Z,9.23
2022-11-26T04:07:09.555Z,8.47
2022-11-26T04:09:35.775Z,6.03
2022-11-26T04:12:01.835Z,6.50
2022-11-26T04:14:28.026Z,8.50
2022-11-26T04:16:54.128Z,11.73
2022-11-26T04:19:20.224Z,7.73
2022-11-26T04:21:46.312Z,16.40
2022-11-26T04:24:12.413Z,6.63
2022-11-26T04:26:38.498Z,8.20
2022-11-26T04:29:04.625Z,10.70
2022-11-26T04:31:31.177Z,4.47
2022-11-26T04:33:57.245Z,11.57
2022-11-26T04:36:23.296Z,9.07
2022-11-26T04:38:49.326Z,11.43
2022-11-26T04:41:15.365Z,10.87
2022-11-26T04:43:41.427Z,9.30
2022-11-26T04:46:07.573Z,10.10
2022-11-26T04:48:33.777Z,9.23
2022-11-26T04:50:59.813Z,14.73
2022-11-26T04:53:25.848Z,6.70
2022-11-26T04:55:52.075Z,13.60
2022-11-26T04:58:19.202Z,7.77
2022-11-26T05:00:50.252Z,16.37
2022-11-26T05:03:16.886Z,7.07
2022-11-26T05:05:43.088Z,8.63
2022-11-26T05:08:09.176Z,11.23
2022-11-26T05:10:35.229Z,6.80
2022-11-26T05:13:01.284Z,8.63
2022-11-26T05:15:27.383Z,9.80
2022-11-26T05:17:53.416Z,10.70
2022-11-26T05:20:19.528Z,6.87
2022-11-26T05:22:45.684Z,11.60
2022-11-26T05:25:11.793Z,9.17
2022-11-26T05:27:37.829Z,7.60
2022-11-26T05:30:04.526Z,11.70
2022-11-26T05:32:30.580Z,19.50
2022-11-26T05:35:00.077Z,7.40
2022-11-26T05:37:26.625Z,13.23
2022-11-26T05:39:52.680Z,8.00
2022-11-26T05:42:18.752Z,11.20
2022-11-26T05:44:44.848Z,13.17
2022-11-26T05:47:10.887Z,7.83
2022-11-26T05:49:36.910Z,8.57
2022-11-26T05:52:03.017Z,6.97
2022-11-26T05:54:29.063Z,8.53
2022-11-26T05:56:59.916Z,7.07
2022-11-26T05:59:27.008Z,5.93
2022-11-26T06:01:53.088Z,8.03
2022-11-26T06:04:19.133Z,8.10
2022-11-26T06:06:45.215Z,8.03
2022-11-26T06:09:11.256Z,7.57
2022-11-26T06:11:37.317Z,9.40
2022-11-26T06:14:03.666Z,4.27
2022-11-26T06:16:29.816Z,11.87
2022-11-26T06:18:56.025Z,4.93
2022-11-26T06:21:22.068Z,4.07
2022-11-26T06:23:55.854Z,4.40
2022-11-26T06:26:25.073Z,5.70
2022-11-26T06:28:51.098Z,4.83
2022-11-26T06:31:17.198Z,5.77
2022-11-26T06:33:43.277Z,6.77
2022-11-26T06:36:09.870Z,4.93
2022-11-26T06:38:35.949Z,8.80
2022-11-26T06:41:04.697Z,18.13
2022-11-26T06:43:31.488Z,5.30
2022-11-26T06:46:05.409Z,7.43
2022-11-26T06:48:32.647Z,5.60
2022-11-26T06:51:04.282Z,4.97
2022-11-26T06:53:30.458Z,5.20
2022-11-26T06:56:04.203Z,5.33
2022-11-26T06:58:30.395Z,7.33
2022-11-26T07:00:56.524Z,7.03
2022-11-26T07:03:25.469Z,7.93
2022-11-26T07:05:53.083Z,7.97
2022-11-26T07:08:19.138Z,9.20
2022-11-26T07:10:49.052Z,5.63
2022-11-26T07:13:15.446Z,6.80
2022-11-26T07:15:41.538Z,6.97
2022-11-26T07:18:07.651Z,8.73
2022-11-26T07:20:35.476Z,8.53
2022-11-26T07:23:03.832Z,9.30
2022-11-26T07:25:30.037Z,8.53
2022-11-26T07:27:56.277Z,7.07
2022-11-26T07:30:22.449Z,12.67
2022-11-26T07:32:48.480Z,12.80
2022-11-26T07:35:14.597Z,9.77
2022-11-26T07:37:40.636Z,8.73
2022-11-26T07:40:07.210Z,9.20
2022-11-26T07:42:33.347Z,13.10
2022-11-26T07:44:59.400Z,12.93
2022-11-26T07:47:25.488Z,27.40
2022-11-26T07:49:51.652Z,13.03
2022-11-26T07:52:17.672Z,11.37
2022-11-26T07:54:43.699Z,10.20
2022-11-26T07:57:10.246Z,15.70
2022-11-26T07:59:36.284Z,14.47
2022-11-26T08:02:02.372Z,12.17
2022-11-26T08:04:28.437Z,11.77
2022-11-26T08:06:54.482Z,14.60
2022-11-26T08:09:20.525Z,10.83
2022-11-26T08:11:46.572Z,13.53
2022-11-26T08:14:12.744Z,18.93
2022-11-26T08:16:39.408Z,19.60
2022-11-26T08:19:08.041Z,19.97
2022-11-26T08:21:34.542Z,21.53
2022-11-26T08:24:00.618Z,23.77
2022-11-26T08:26:34.653Z,19.20
2022-11-26T08:29:03.360Z,28.23
2022-11-26T08:31:29.514Z,22.00
2022-11-26T08:33:57.336Z,21.27
2022-11-26T08:36:23.394Z,25.10
2022-11-26T08:38:49.530Z,19.97
2022-11-26T08:41:15.577Z,20.70
2022-11-26T08:46:27.884Z,23.30
2022-11-26T08:48:57.275Z,15.07
2022-11-26T08:51:24.513Z,19.00
2022-11-26T08:53:50.570Z,28.93
2022-11-26T08:56:16.593Z,14.23
2022-11-26T08:58:44.326Z,14.30
2022-11-26T09:01:24.459Z,45.70
2022-11-26T09:03:51.868Z,30.47
2022-11-26T09:06:19.092Z,23.57
2022-11-26T09:09:03.857Z,13.07
2022-11-26T09:11:30.717Z,29.80
2022-11-26T09:13:57.781Z,39.83
2022-11-26T09:16:24.672Z,15.33
2022-11-26T09:18:51.160Z,12.33
2022-11-26T09:21:18.067Z,20.40
2022-11-26T09:23:44.201Z,11.57
2022-11-26T09:26:10.352Z,24.03
2022-11-26T09:28:36.475Z,22.10
2022-11-26T09:31:02.575Z,19.13
2022-11-26T09:33:29.271Z,14.30
2022-11-26T09:36:06.321Z,19.13
2022-11-26T09:38:33.016Z,10.00
2022-11-26T09:41:02.065Z,12.37
2022-11-26T09:43:55.186Z,14.30
2022-11-26T09:47:10.117Z,11.90
2022-11-26T09:49:36.043Z,15.10
2022-11-26T09:52:02.829Z,12.43
2022-11-26T09:54:29.765Z,12.23
2022-11-26T09:57:09.317Z,18.63
2022-11-26T09:59:36.180Z,10.50
2022-11-26T10:02:02.358Z,13.30
2022-11-26T10:04:30.941Z,14.63
2022-11-26T10:07:33.864Z,11.23
2022-11-26T10:10:19.745Z,17.07
2022-11-26T10:13:20.246Z,14.27
2022-11-26T10:16:26.701Z,10.70
2022-11-26T10:19:07.129Z,15.67
2022-11-26T10:22:03.147Z,10.67
2022-11-26T10:24:32.316Z,11.50
2022-11-26T10:27:09.546Z,6.83
2022-11-26T10:29:43.283Z,18.17
2022-11-26T10:32:16.307Z,13.03
2022-11-26T10:34:49.909Z,9.80
2022-11-26T10:37:16.416Z,16.43
2022-11-26T10:39:42.984Z,8.73
2022-11-26T10:42:13.997Z,12.43
2022-11-26T10:44:41.428Z,8.87
2022-11-26T10:47:26.013Z,8.30
2022-11-26T10:50:39.711Z,9.43
2022-11-26T10:53:04.308Z,8.67
2022-11-26T10:55:33.653Z,10.93
2022-11-26T10:58:14.261Z,7.63
2022-11-26T11:00:48.989Z,7.60
2022-11-26T11:03:44.546Z,7.87
2022-11-26T11:06:27.278Z,10.17
2022-11-26T11:08:53.884Z,9.40
2022-11-26T11:11:29.843Z,8.10
2022-11-26T11:13:56.561Z,9.20
2022-11-26T11:16:29.220Z,9.87
2022-11-26T11:18:58.066Z,9.00
2022-11-26T11:21:29.160Z,8.97
2022-11-26T11:24:26.533Z,7.67
2022-11-26T11:26:56.016Z,12.33
2022-11-26T11:29:28.107Z,8.47
2022-11-26T11:31:55.435Z,15.60
2022-11-26T11:34:39.297Z,11.43
2022-11-26T11:37:14.948Z,9.03
2022-11-26T11:39:42.272Z,12.37
2022-11-26T11:42:34.721Z,12.37
2022-11-26T11:45:00.955Z,10.60
2022-11-26T11:47:57.266Z,13.20
2022-11-26T11:50:23.495Z,12.20
2022-11-26T11:53:00.027Z,11.43
2022-11-26T11:55:51.555Z,11.90
2022-11-26T11:58:29.889Z,16.03
2022-11-26T12:01:14.814Z,11.10
2022-11-26T12:04:04.298Z,12.97
2022-11-26T12:06:51.849Z,13.37
2022-11-26T12:09:41.865Z,12.63
2022-11-26T12:12:22.811Z,9.93
2022-11-26T12:14:52.087Z,14.13
2022-11-26T12:17:50.273Z,11.80
2022-11-26T12:20:27.798Z,12.70
2022-11-26T12:23:22.809Z,17.73
2022-11-26T12:26:06.505Z,13.10
2022-11-26T12:28:54.676Z,15.53
2022-11-26T12:31:37.011Z,10.50
2022-11-26T12:34:31.326Z,13.67
2022-11-26T12:37:02.172Z,11.27
2022-11-26T12:39:58.999Z,10.90
2022-11-26T12:42:32.409Z,12.33
2022-11-26T12:45:17.651Z,14.03
2022-11-26T12:47:50.207Z,14.73
2022-11-26T12:50:45.968Z,16.07
2022-11-26T12:53:18.421Z,17.33
2022-11-26T12:55:55.124Z,18.13
2022-11-26T12:58:26.845Z,14.47
2022-11-26T13:00:54.186Z,15.60
2022-11-26T13:03:29.111Z,13.60
2022-11-26T13:06:32.643Z,12.80
2022-11-26T13:09:29.611Z,15.17
2022-11-26T13:12:06.440Z,12.43
2022-11-26T13:14:40.285Z,16.43
2022-11-26T13:17:13.347Z,21.23
2022-11-26T13:19:41.327Z,14.63
2022-11-26T13:22:26.300Z,14.27
2022-11-26T13:25:21.409Z,20.90
2022-11-26T13:28:25.340Z,15.97
2022-11-26T13:31:24.049Z,16.87
2022-11-26T13:34:15.190Z,22.23
2022-11-26T13:36:56.475Z,20.80
2022-11-26T13:39:34.573Z,16.03
2022-11-26T13:42:21.888Z,16.17
2022-11-26T13:45:01.137Z,15.10
2022-11-26T13:47:34.808Z,23.77
2022-11-26T13:50:22.824Z,16.90
2022-11-26T13:53:04.956Z,16.17
2022-11-26T13:55:34.039Z,20.20
2022-11-26T13:58:03.057Z,17.30
2022-11-26T14:00:31.298Z,24.13
2022-11-26T14:02:58.741Z,15.33
2022-11-26T14:05:50.337Z,21.93
2022-11-26T14:08:40.487Z,20.57
2022-11-26T14:11:07.311Z,27.23
2022-11-26T14:13:33.536Z,17.70
2022-11-26T14:16:09.380Z,18.90
2022-11-26T14:18:47.530Z,16.70
2022-11-26T14:21:18.142Z,11.90
2022-11-26T14:23:46.790Z,22.47
2022-11-26T14:26:15.558Z,14.70
2022-11-26T14:28:41.769Z,13.70
2022-11-26T14:31:24.787Z,13.40
2022-11-26T14:33:52.400Z,11.67
2022-11-26T14:36:24.301Z,14.60
2022-11-26T14:39:23.136Z,14.70
2022-11-26T14:42:00.355Z,13.13
2022-11-26T14:44:30.231Z,23.77
2022-11-26T14:46:58.721Z,35.17
2022-11-26T14:49:35.505Z,27.17
2022-11-26T14:52:04.729Z,20.13
2022-11-26T14:54:33.303Z,17.40
2022-11-26T14:57:06.197Z,16.50
2022-11-26T14:59:32.377Z,25.20
2022-11-26T15:01:58.428Z,24.93
2022-11-26T15:04:25.860Z,22.47
2022-11-26T15:06:52.101Z,22.23
2022-11-26T15:09:26.705Z,20.30
2022-11-26T15:11:55.767Z,19.93
2022-11-26T15:14:29.159Z,24.53
2022-11-26T15:17:01.971Z,24.40
2022-11-26T15:19:32.253Z,14.00
2022-11-26T15:21:59.820Z,30.03
2022-11-26T15:24:26.173Z,20.20
2022-11-26T15:26:52.244Z,17.87
2022-11-26T15:29:30.492Z,23.03
2022-11-26T15:31:57.001Z,13.60
2022-11-26T15:34:23.876Z,17.30
2022-11-26T15:36:49.977Z,20.63
2022-11-26T15:39:28.353Z,19.03
2022-11-26T15:42:01.214Z,23.60
2022-11-26T15:44:28.229Z,22.73
2022-11-26T15:46:55.605Z,22.00
2022-11-26T15:49:24.573Z,18.57
2022-11-26T15:52:03.010Z,20.30
2022-11-26T15:54:49.630Z,21.27
2022-11-26T15:57:23.508Z,25.33
2022-11-26T15:59:54.845Z,20.63
2022-11-26T16:02:24.557Z,28.40
2022-11-26T16:04:52.636Z,23.07
2022-11-26T16:07:20.886Z,23.60
2022-11-26T16:09:48.586Z,23.87
2022-11-26T16:12:29.696Z,37.70
2022-11-26T16:15:07.334Z,28.33
2022-11-26T16:17:33.654Z,22.47
2022-11-26T16:19:59.847Z,27.43
2022-11-26T16:22:30.547Z,16.83
2022-11-26T16:25:03.297Z,20.63
2022-11-26T16:27:30.874Z,31.13
2022-11-26T16:29:57.028Z,18.67
2022-11-26T16:32:23.585Z,22.57
2022-11-26T16:34:49.693Z,26.90
2022-11-26T16:37:22.439Z,31.43
2022-11-26T16:39:50.736Z,24.70
2022-11-26T16:42:19.289Z,24.30
2022-11-26T16:44:45.631Z,24.67
2022-11-26T16:47:27.777Z,22.50
2022-11-26T16:49:54.134Z,35.57
2022-11-26T16:52:20.290Z,30.00
2022-11-26T16:54:47.340Z,24.80
2022-11-26T16:57:18.197Z,27.53
2022-11-26T16:59:48.610Z,17.87
2022-11-26T17:02:16.847Z,21.17
2022-11-26T17:04:43.582Z,31.13
2022-11-26T17:07:14.978Z,27.10
2022-11-26T17:09:41.811Z,32.60
2022-11-26T17:12:20.582Z,32.87
2022-11-26T17:14:47.225Z,25.60
2022-11-26T17:17:20.367Z,29.37
2022-11-26T17:19:49.895Z,30.17
2022-11-26T17:22:16.030Z,25.50
2022-11-26T17:24:42.083Z,31.13
2022-11-26T17:27:16.315Z,36.30
2022-11-26T17:29:43.387Z,32.97
2022-11-26T17:32:14.283Z,26.87
2022-11-26T17:34:40.642Z,26.77
2022-11-26T17:37:13.271Z,29.73
2022-11-26T17:39:39.390Z,22.90
2022-11-26T17:42:05.672Z,19.87
2022-11-26T17:44:31.719Z,27.03
2022-11-26T17:49:44.684Z,26.17
2022-11-26T17:52:11.041Z,26.13
2022-11-26T17:54:37.095Z,22.97
2022-11-26T17:57:03.583Z,20.00
2022-11-26T17:59:30.412Z,18.20
2022-11-26T18:01:56.603Z,27.43
2022-11-26T18:04:22.733Z,17.50
2022-11-26T18:07:17.450Z,22.20
2022-11-26T18:09:44.003Z,17.97
2022-11-26T18:12:25.263Z,19.83
2022-11-26T18:14:55.263Z,24.20
2022-11-26T18:17:21.360Z,17.60
2022-11-26T18:19:47.652Z,21.90
2022-11-26T18:22:16.172Z,26.10
2022-11-26T18:24:46.721Z,19.30
2022-11-26T18:27:12.780Z,19.53
2022-11-26T18:29:39.098Z,18.23
2022-11-26T18:32:05.439Z,15.03
2022-11-26T18:34:31.588Z,14.97
2022-11-26T18:36:57.606Z,16.70
2022-11-26T18:39:23.705Z,17.50
2022-11-26T18:41:49.781Z,17.33
2022-11-26T18:44:15.819Z,14.53
2022-11-26T18:46:41.963Z,18.53
2022-11-26T18:49:08.036Z,11.73
2022-11-26T18:51:34.085Z,14.23
2022-11-26T18:54:01.190Z,16.13
2022-11-26T18:56:27.242Z,20.87
2022-11-26T18:58:53.288Z,20.40
2022-11-26T19:01:27.960Z,16.10
2022-11-26T19:03:54.773Z,23.70
2022-11-26T19:06:24.667Z,16.43
2022-11-26T19:08:56.870Z,19.80
2022-11-26T19:11:23.874Z,18.83
2022-11-26T19:13:50.358Z,17.53
2022-11-26T19:16:18.629Z,19.83
2022-11-26T19:18:45.345Z,10.93
2022-11-26T19:21:19.003Z,16.27
2022-11-26T19:23:45.090Z,12.23
2022-11-26T19:26:11.443Z,11.93
2022-11-26T19:28:37.489Z,12.73
2022-11-26T19:31:06.353Z,17.80
2022-11-26T19:33:32.997Z,17.87
2022-11-26T19:36:10.649Z,14.30
2022-11-26T19:38:37.229Z,11.40
2022-11-26T19:41:04.315Z,14.17
2022-11-26T19:43:33.524Z,11.93
2022-11-26T19:46:19.287Z,10.03
2022-11-26T19:48:47.081Z,10.80
2022-11-26T19:51:14.696Z,10.73
2022-11-26T19:53:41.313Z,10.70
2022-11-26T19:56:11.049Z,23.37
2022-11-26T19:58:37.098Z,17.73
2022-11-26T20:01:08.362Z,9.50
2022-11-26T20:03:37.544Z,9.47
2022-11-26T20:06:06.307Z,8.97
2022-11-26T20:08:33.816Z,10.07
2022-11-26T20:11:04.920Z,11.27
2022-11-26T20:13:31.637Z,8.80
2022-11-26T20:15:57.757Z,8.57
2022-11-26T20:18:23.885Z,9.83
2022-11-26T20:21:19.116Z,9.30
2022-11-26T20:23:45.698Z,10.63
2022-11-26T20:26:14.968Z,10.53
2022-11-26T20:28:41.090Z,10.23
2022-11-26T20:31:07.349Z,10.63
2022-11-26T20:33:34.704Z,8.57
2022-11-26T20:36:04.588Z,9.73
2022-11-26T20:38:30.625Z,9.23
2022-11-26T20:40:56.661Z,11.90
2022-11-26T20:43:22.722Z,13.10
2022-11-26T20:45:48.866Z,9.10
2022-11-26T20:48:14.989Z,11.77
2022-11-26T20:50:41.038Z,10.83
2022-11-26T20:53:07.087Z,9.83
2022-11-26T20:55:33.147Z,10.27
2022-11-26T20:57:59.196Z,13.67
2022-11-26T21:00:27.694Z,9.60
2022-11-26T21:02:54.100Z,10.83
2022-11-26T21:05:21.849Z,11.00
2022-11-26T21:07:50.080Z,10.67
2022-11-26T21:10:16.235Z,11.83
2022-11-26T21:12:42.378Z,9.37
2022-11-26T21:15:09.082Z,7.53
2022-11-26T21:17:35.521Z,7.27
2022-11-26T21:20:01.659Z,7.40
2022-11-26T21:22:27.796Z,8.57
2022-11-26T21:24:53.956Z,13.73
2022-11-26T21:27:19.984Z,11.77
2022-11-26T21:29:46.099Z,13.90
2022-11-26T21:32:12.203Z,10.40
2022-11-26T21:34:38.229Z,14.00
2022-11-26T21:37:04.285Z,14.97
2022-11-26T21:39:30.411Z,13.57
2022-11-26T21:41:56.469Z,9.63
2022-11-26T21:44:23.038Z,14.60
2022-11-26T21:46:49.064Z,21.10
2022-11-26T21:49:15.103Z,16.10
2022-11-26T21:51:41.807Z,15.37
2022-11-26T21:54:08.136Z,15.57
2022-11-26T21:56:34.196Z,16.30
2022-11-26T21:59:00.594Z,16.07
2022-11-26T22:01:34.288Z,15.10
2022-11-26T22:04:03.725Z,16.70
2022-11-26T22:06:30.217Z,17.83
2022-11-26T22:08:56.527Z,13.40
2022-11-26T22:11:27.898Z,16.57
2022-11-26T22:13:54.145Z,18.60
2022-11-26T22:16:21.977Z,18.90
2022-11-26T22:18:48.665Z,12.10
2022-11-26T22:21:18.104Z,14.50
2022-11-26T22:23:44.486Z,15.10
2022-11-26T22:26:10.680Z,18.17
2022-11-26T22:28:38.211Z,13.93
2022-11-26T22:31:14.582Z,18.70
2022-11-26T22:33:40.800Z,16.20
2022-11-26T22:36:07.452Z,19.80
2022-11-26T22:38:34.597Z,14.60
2022-11-26T22:41:05.019Z,15.60
2022-11-26T22:43:31.528Z,19.20
2022-11-26T22:45:58.120Z,19.97
2022-11-26T22:48:24.273Z,15.40
2022-11-26T22:50:54.049Z,17.07
2022-11-26T22:53:20.981Z,17.57
2022-11-26T22:55:54.176Z,21.23
2022-11-26T22:58:21.494Z,15.90
2022-11-26T23:00:52.510Z,18.17
2022-11-26T23:03:19.458Z,12.20
2022-11-26T23:05:46.078Z,11.90
2022-11-26T23:08:12.932Z,14.83
2022-11-26T23:10:39.336Z,9.20
2022-11-26T23:13:05.739Z,13.20
2022-11-26T23:15:32.200Z,8.93
2022-11-26T23:17:58.471Z,9.87
2022-11-26T23:20:24.941Z,8.30
2022-11-26T23:22:50.988Z,12.20
2022-11-26T23:25:17.163Z,14.63
2022-11-26T23:27:43.222Z,9.53
2022-11-26T23:30:09.760Z,11.90
2022-11-26T23:32:35.811Z,9.90
2022-11-26T23:35:01.913Z,10.33
2022-11-26T23:37:27.946Z,10.73
2022-11-26T23:39:53.987Z,7.87
2022-11-26T23:42:20.039Z,8.63
2022-11-26T23:44:46.071Z,10.43
2022-11-26T23:47:12.120Z,13.73
2022-11-26T23:49:38.477Z,9.77
2022-11-26T23:52:05.351Z,15.00
2022-11-26T23:54:31.563Z,12.30
2022-11-26T23:56:57.608Z,15.53
2022-11-26T23:59:23.695Z,12.73
